Newtown, Indiana
Current Conditions -  °F | °C
As of 9:17 AM on Tuesday 27 Jan 2015 (Local Time) from KLAF Reporting Station
Haze Haze  
Wind Chill: 17°   Ceiling: 1100
Heat Index: 24°   Visibility: 2mi
Dew Point: 23°   Wind: 6mph
Humidity: 96%   Direction: 50°NE
Pressure: 30.07"   Gusts: NA
Location:  40.2°N, 87.15°W
Report Text: KLAF 271417Z 05005KT 2SM BR SCT007 OVC011 M04/M05 A3007 RMK AO2 T10441050
Loading
Personal Weather Stations






























Interactive Weather Map New forecast layout! Learn more

10-Day Weather Forecast

Advertisements
Track Severe Weather on mobile